Aeroporto :
LOGIN :

Iscrizione | Disclaimer

   EN    FR    IT 

 










Sommario :    VFR   VFR Marginale   IFR   IFR Intensivo   IFR Molto Intensivo
Visibilità : 
Base nubi : 
>= 8 km
>= 3000ft
5 / 8 km
1000 / 3000 ft
1500m / 5 km
500 / 1000 ft
800 / 1500m
200 / 500 ft
< 800m
< 200 ft
Simboli :   Temporali  Nebbia  Neve Forte  Precipitazioni Forti  Vento > 20 kt
SIGMETs :   Varie  Temporali  Ghiacco  Turbolenza  Onda orograficha  Ceneri Vulcaniche






- Altitudine del aeroporto : 100 ft


EBDT - Schaffen

ULTIMO METAR :
  • 271503Z AUTO 35009KT 8000 -RASN BKN003/// OVC006/// 01/01 Q0995 YLO

METARs OBSOLETI :
  • 271449Z AUTO 36010KT 8000 -SN SCT004/// BKN006/// 01/01 Q0995 YLO
  • 271425Z AUTO 03008KT 9999 -RA FEW004/// BKN006/// OVC009/// 02/01 Q0994 YLO
  • 271355Z AUTO 04010KT 9999 -RA BKN005/// OVC007/// 02/01 Q0993 YLO
  • 271325Z AUTO 06007KT 9000 -RA BKN005/// BKN007/// 02/01 Q0992 YLO
  • 271255Z AUTO 07010KT 9999 -RA BKN006/// OVC009/// 02/01 Q0992 YLO
  • 271225Z AUTO 07010KT 9999 RA FEW004/// BKN006/// OVC008/// 02/01 Q0992 YLO
  • 271208Z AUTO 07009KT 5000 -RA FEW004/// BKN006/// BKN011/// 02/02 Q0993 YLO

Previsioni scadute.



MetMap, La meteo Aeronautica in un colpo d'occhio ! - Copyright ORBIFLY Dicembre 2007 - Disclaimer

ORBIFLY MET'MAP TEAM :

Programmazione e sviluppo : Alexandra Zaïnal
Concezione : Baudouin d'Aumeries
Aiuto per la programmazione : Marc-Olivier Méhu
Supporto tecnico e logistico : Manuel Goepfert
Aiuto per la traduzione : Arnaldo La Scala

Contatto : metmap@orbifly.com




FONTI E CREDITI :

   NOAA